Time;durP1;ratioP1;P1;durP2;ratioP2;P2;SDS_P1;SDS_P2;PMS_P1;PMS_P2;Temp;Humidity;BMP_temperature;BMP_pressure;BME280_temperature;BME280_humidity;BME280_pressure;Samples;Min_cycle;Max_cycle;Signal;HPM_P1;HPM_P2
2023/07/29 00:05:01;;;;;;;;;;;;;;;17.80;100.00;100664.97;10377481;28;19932;-68
2023/07/29 00:10:04;;;;;;;;;;;;;;;17.93;100.00;100656.81;10376959;28;20344;-68
2023/07/29 00:15:07;;;;;;;;;;;;;;;17.80;100.00;100654.38;10375281;28;20008;-69
2023/07/29 00:20:09;;;;;;;;;;;;;;;17.86;100.00;100658.31;10376115;28;19925;-69
2023/07/29 00:25:11;;;;;;;;;;;;;;;17.83;100.00;100644.34;10376519;28;19929;-69
2023/07/29 00:30:13;;;;;;;;;;;;;;;17.72;100.00;100623.31;10376284;28;20008;-68
2023/07/29 00:35:16;;;;;;;;;;;;;;;17.79;100.00;100610.38;10375930;28;20277;-68
2023/07/29 00:40:19;;;;;;;;;;;;;;;17.77;100.00;100621.09;10375982;28;20004;-69
2023/07/29 00:45:22;;;;;;;;;;;;;;;17.73;100.00;100617.03;10375784;28;19996;-68
2023/07/29 00:50:24;;;;;;;;;;;;;;;17.77;100.00;100610.50;10374457;28;20308;-68
2023/07/29 00:55:26;;;;;;;;;;;;;;;17.65;100.00;100608.94;10375459;28;19948;-68
2023/07/29 01:00:28;;;;;;;;;;;;;;;17.53;100.00;100632.06;10375325;28;19935;-69
2023/07/29 01:05:32;;;;;;;;;;;;;;;17.55;100.00;100638.09;10375472;28;19932;-69
2023/07/29 01:10:38;;;;;;;;;;;;;;;17.60;100.00;100638.50;10374061;28;19925;-68
2023/07/29 01:15:46;;;;;;;;;;;;;;;17.63;100.00;100626.78;10374899;28;19931;-68
2023/07/29 01:20:48;;;;;;;;;;;;;;;17.63;100.00;100616.19;10373732;28;19925;-69
2023/07/29 01:25:50;;;;;;;;;;;;;;;17.62;100.00;100614.53;10374739;28;19926;-68
2023/07/29 01:31:19;;;;;;;;;;;;;;;17.56;100.00;100604.50;10386236;28;19948;-69
2023/07/29 01:36:23;;;;;;;;;;;;;;;17.53;100.00;100600.31;10379807;28;19961;-68
2023/07/29 01:41:25;;;;;;;;;;;;;;;17.50;100.00;100605.91;10386996;28;19957;-68
2023/07/29 01:46:27;;;;;;;;;;;;;;;17.34;100.00;100602.94;10386508;28;19925;-68
2023/07/29 01:51:29;;;;;;;;;;;;;;;17.52;100.00;100603.94;10386583;28;20308;-68
2023/07/29 01:56:31;;;;;;;;;;;;;;;17.59;100.00;100601.59;10387997;28;19932;-69
2023/07/29 02:01:34;;;;;;;;;;;;;;;17.48;100.00;100607.81;10386399;28;20018;-68
2023/07/29 02:06:36;;;;;;;;;;;;;;;17.54;100.00;100607.28;10387655;28;19975;-68
2023/07/29 02:11:39;;;;;;;;;;;;;;;17.65;100.00;100601.00;10369954;28;19972;-69
2023/07/29 02:16:41;;;;;;;;;;;;;;;17.60;100.00;100608.53;10387189;28;20288;-68
2023/07/29 02:21:44;;;;;;;;;;;;;;;17.73;100.00;100609.09;10387251;28;19981;-69
2023/07/29 02:26:46;;;;;;;;;;;;;;;18.02;100.00;100597.69;10386936;28;19931;-69
2023/07/29 02:31:48;;;;;;;;;;;;;;;18.46;100.00;100591.88;10387181;28;19925;-69
2023/07/29 02:36:50;;;;;;;;;;;;;;;18.40;100.00;100590.63;10386879;28;20016;-69
2023/07/29 02:41:53;;;;;;;;;;;;;;;18.08;100.00;100607.72;10379912;28;19926;-69
2023/07/29 02:46:56;;;;;;;;;;;;;;;18.24;100.00;100595.69;10380433;28;19925;-69
2023/07/29 02:51:58;;;;;;;;;;;;;;;18.22;100.00;100587.06;10379285;28;19926;-68
2023/07/29 02:57:00;;;;;;;;;;;;;;;18.32;100.00;100582.56;10379999;28;19932;-69
2023/07/29 03:02:03;;;;;;;;;;;;;;;18.11;100.00;100588.06;10378832;28;19936;-69
2023/07/29 03:07:05;;;;;;;;;;;;;;;18.34;100.00;100581.47;10379880;28;20357;-69
2023/07/29 03:12:07;;;;;;;;;;;;;;;18.33;100.00;100578.94;10379359;28;19925;-69
2023/07/29 03:17:10;;;;;;;;;;;;;;;18.34;100.00;100567.34;10378085;28;19926;-69
2023/07/29 03:22:12;;;;;;;;;;;;;;;18.28;100.00;100575.91;10378921;28;19926;-68
2023/07/29 03:27:15;;;;;;;;;;;;;;;18.31;100.00;100571.16;10378857;28;19929;-69
2023/07/29 03:32:18;;;;;;;;;;;;;;;18.30;100.00;100565.97;10377401;28;20287;-69
2023/07/29 03:37:21;;;;;;;;;;;;;;;18.13;100.00;100563.09;10378333;28;19933;-69
2023/07/29 03:42:23;;;;;;;;;;;;;;;18.22;100.00;100549.97;10430739;22;19924;-69
2023/07/29 03:47:25;;;;;;;;;;;;;;;18.14;100.00;100562.13;10501634;28;19932;-69
2023/07/29 03:52:27;;;;;;;;;;;;;;;18.10;100.00;100565.19;10501192;28;20285;-69
2023/07/29 03:57:30;;;;;;;;;;;;;;;18.00;100.00;100565.22;10501111;28;19925;-69
2023/07/29 04:02:32;;;;;;;;;;;;;;;17.73;100.00;100563.25;10500839;28;20286;-69
2023/07/29 04:07:35;;;;;;;;;;;;;;;17.75;100.00;100569.25;10500648;28;19925;-69
2023/07/29 04:12:37;;;;;;;;;;;;;;;17.91;100.00;100571.38;10500432;28;19925;-69
2023/07/29 04:17:39;;;;;;;;;;;;;;;17.65;100.00;100574.53;10500433;28;19931;-69
2023/07/29 04:22:41;;;;;;;;;;;;;;;17.92;100.00;100570.38;10500199;28;19928;-69
2023/07/29 04:27:44;;;;;;;;;;;;;;;17.87;100.00;100552.28;10499780;28;19925;-69
2023/07/29 04:32:48;;;;;;;;;;;;;;;17.61;100.00;100531.63;10498705;28;20367;-69
2023/07/29 04:37:50;;;;;;;;;;;;;;;17.45;100.00;100526.91;10499477;28;19924;-69
2023/07/29 04:42:52;;;;;;;;;;;;;;;17.56;100.00;100540.97;10499105;28;20275;-69
2023/07/29 04:47:55;;;;;;;;;;;;;;;17.67;100.00;100558.50;10499186;28;20411;-69
2023/07/29 04:52:57;;;;;;;;;;;;;;;17.64;100.00;100570.22;10498332;28;19925;-69
2023/07/29 04:58:00;;;;;;;;;;;;;;;17.74;100.00;100594.91;10498736;28;19972;-69
2023/07/29 05:03:02;;;;;;;;;;;;;;;17.47;100.00;100603.53;10498282;28;19924;-69
2023/07/29 05:08:04;;;;;;;;;;;;;;;17.59;100.00;100594.47;10498767;28;19978;-69
2023/07/29 05:13:06;;;;;;;;;;;;;;;17.72;100.00;100602.16;10498527;28;20390;-69
2023/07/29 05:18:11;;;;;;;;;;;;;;;17.68;100.00;100590.16;10497401;28;19925;-69
2023/07/29 05:23:13;;;;;;;;;;;;;;;17.73;100.00;100579.97;10497181;28;19943;-69
2023/07/29 05:28:15;;;;;;;;;;;;;;;17.70;100.00;100588.22;10498460;28;19929;-69
2023/07/29 05:33:18;;;;;;;;;;;;;;;17.83;100.00;100601.16;10498308;28;19928;-69
2023/07/29 05:38:20;;;;;;;;;;;;;;;17.52;100.00;100598.66;10498021;28;19924;-70
2023/07/29 05:43:26;;;;;;;;;;;;;;;17.61;100.00;100623.44;10497714;28;19924;-70
2023/07/29 05:48:28;;;;;;;;;;;;;;;17.48;100.00;100630.81;10496703;28;20027;-69
2023/07/29 05:53:31;;;;;;;;;;;;;;;17.70;100.00;100625.28;10498007;28;20012;-69
2023/07/29 05:58:33;;;;;;;;;;;;;;;17.91;100.00;100619.03;10497644;28;19931;-70
2023/07/29 06:03:35;;;;;;;;;;;;;;;17.72;100.00;100617.16;10497719;28;19934;-70
2023/07/29 06:08:37;;;;;;;;;;;;;;;17.78;100.00;100620.09;10497467;28;20011;-69
2023/07/29 06:13:40;;;;;;;;;;;;;;;17.95;100.00;100615.13;10497293;28;19924;-69
2023/07/29 06:18:42;;;;;;;;;;;;;;;17.88;100.00;100621.97;10505142;28;19924;-70
2023/07/29 06:23:44;;;;;;;;;;;;;;;18.11;100.00;100619.88;10504792;28;20302;-69
2023/07/29 06:28:46;;;;;;;;;;;;;;;18.29;100.00;100604.91;10504560;28;19930;-70
2023/07/29 06:33:49;;;;;;;;;;;;;;;18.36;100.00;100606.00;10504389;28;20282;-70
2023/07/29 06:38:51;;;;;;;;;;;;;;;18.38;100.00;100611.16;10503035;28;19925;-69
2023/07/29 06:43:53;;;;;;;;;;;;;;;18.44;100.00;100615.03;10503960;28;19924;-70
2023/07/29 06:48:55;;;;;;;;;;;;;;;18.44;100.00;100607.09;10504008;28;19929;-70
2023/07/29 06:53:58;;;;;;;;;;;;;;;18.74;100.00;100600.69;10503863;28;20011;-69
2023/07/29 06:59:00;;;;;;;;;;;;;;;19.00;100.00;100610.69;10502325;28;19924;-70
2023/07/29 07:04:02;;;;;;;;;;;;;;;19.08;99.78;100621.38;10502087;28;20520;-70
2023/07/29 07:09:04;;;;;;;;;;;;;;;18.97;100.00;100618.94;10503251;28;19924;-69
2023/07/29 07:14:06;;;;;;;;;;;;;;;19.18;100.00;100611.56;10502892;28;19924;-69
2023/07/29 07:19:09;;;;;;;;;;;;;;;19.35;97.20;100607.28;10502939;28;19930;-70
2023/07/29 07:24:11;;;;;;;;;;;;;;;19.85;94.60;100616.56;10502481;28;20113;-70
2023/07/29 07:29:13;;;;;;;;;;;;;;;19.82;92.94;100631.00;10502175;28;19924;-70
2023/07/29 07:34:15;;;;;;;;;;;;;;;19.74;92.93;100636.19;10502220;28;19929;-69
2023/07/29 07:39:18;;;;;;;;;;;;;;;19.71;97.85;100633.84;10501857;28;20264;-70
2023/07/29 07:44:20;;;;;;;;;;;;;;;20.24;91.41;100626.84;10501727;28;19931;-70
2023/07/29 07:49:22;;;;;;;;;;;;;;;21.21;86.28;100638.16;10501465;28;19924;-70
2023/07/29 07:54:24;;;;;;;;;;;;;;;20.85;86.19;100632.22;10501593;28;19931;-70
2023/07/29 07:59:27;;;;;;;;;;;;;;;20.55;90.64;100642.31;10501076;28;19924;-71
2023/07/29 08:04:29;;;;;;;;;;;;;;;20.92;86.96;100635.91;10500856;28;19924;-70
2023/07/29 08:09:31;;;;;;;;;;;;;;;21.23;86.82;100638.00;10499614;28;19925;-70
2023/07/29 08:14:33;;;;;;;;;;;;;;;21.22;86.48;100636.34;10499334;28;19925;-70
2023/07/29 08:19:36;;;;;;;;;;;;;;;20.71;87.85;100641.59;10500100;28;20294;-71
2023/07/29 08:24:38;;;;;;;;;;;;;;;20.42;92.41;100646.25;10500067;28;19932;-70
2023/07/29 08:29:40;;;;;;;;;;;;;;;20.23;92.20;100654.41;10499851;28;20406;-70
2023/07/29 08:34:42;;;;;;;;;;;;;;;20.69;92.32;100651.56;10499808;28;19924;-70
2023/07/29 08:39:44;;;;;;;;;;;;;;;21.17;85.93;100644.00;10498661;28;20425;-70
2023/07/29 08:44:47;;;;;;;;;;;;;;;21.01;88.73;100652.72;10499285;28;19970;-70
2023/07/29 08:49:50;;;;;;;;;;;;;;;21.26;86.84;100654.50;10499177;28;20287;-67
2023/07/29 08:54:52;;;;;;;;;;;;;;;21.69;85.92;100660.63;10499133;28;19924;-69
2023/07/29 08:59:55;;;;;;;;;;;;;;;21.00;85.38;100656.38;10498759;28;19925;-69
2023/07/29 09:04:57;;;;;;;;;;;;;;;21.38;86.09;100657.69;10498972;28;19932;-69
2023/07/29 09:09:59;;;;;;;;;;;;;;;21.07;86.08;100660.91;10498712;28;19924;-69
2023/07/29 09:15:01;;;;;;;;;;;;;;;20.80;87.84;100667.28;10498447;28;20275;-69
2023/07/29 09:20:04;;;;;;;;;;;;;;;21.46;85.91;100651.56;10497169;28;20280;-69
2023/07/29 09:25:07;;;;;;;;;;;;;;;22.19;82.73;100653.50;10497240;28;19960;-69
2023/07/29 09:30:16;;;;;;;;;;;;;;;23.26;76.45;100631.06;10497322;28;19939;-69
2023/07/29 09:35:18;;;;;;;;;;;;;;;22.09;80.14;100634.19;10498221;28;20393;-69
2023/07/29 09:40:20;;;;;;;;;;;;;;;23.31;77.08;100628.69;10497936;28;19924;-69
2023/07/29 09:45:26;;;;;;;;;;;;;;;25.00;72.50;100611.47;10497793;28;19925;-69
2023/07/29 09:50:29;;;;;;;;;;;;;;;24.94;70.14;100611.41;10501285;28;20366;-69
2023/07/29 09:55:32;;;;;;;;;;;;;;;24.81;70.38;100612.03;10505160;28;19930;-68
2023/07/29 10:00:34;;;;;;;;;;;;;;;23.57;73.18;100620.38;10505855;28;19924;-69
2023/07/29 10:05:38;;;;;;;;;;;;;;;23.65;74.81;100614.13;10505494;28;19924;-69
2023/07/29 10:10:41;;;;;;;;;;;;;;;24.27;69.50;100615.78;10505695;28;19925;-68
2023/07/29 10:15:44;;;;;;;;;;;;;;;23.37;73.85;100618.13;10504006;28;20260;-68
2023/07/29 10:20:47;;;;;;;;;;;;;;;23.70;74.36;100620.59;10503996;28;19925;-68
2023/07/29 10:25:54;;;;;;;;;;;;;;;23.20;72.94;100619.25;10487020;28;19925;-68
2023/07/29 10:30:58;;;;;;;;;;;;;;;22.99;75.97;100628.63;10503418;28;20007;-69
2023/07/29 10:36:00;;;;;;;;;;;;;;;23.68;72.30;100622.59;10503341;28;19930;-68
2023/07/29 10:41:02;;;;;;;;;;;;;;;25.29;66.99;100625.03;10502996;28;20375;-69
2023/07/29 10:46:20;;;;;;;;;;;;;;;24.73;69.02;100613.00;10503764;28;20279;-69
2023/07/29 10:51:26;;;;;;;;;;;;;;;25.11;67.78;100615.50;10486276;28;20399;-70
2023/07/29 10:56:30;;;;;;;;;;;;;;;27.09;63.26;100602.25;10502683;28;19959;-69
2023/07/29 11:01:32;;;;;;;;;;;;;;;24.46;68.63;100601.88;10502525;28;19925;-69
2023/07/29 11:06:49;;;;;;;;;;;;;;;25.12;65.77;100605.66;10503318;28;20353;-68
2023/07/29 11:11:52;;;;;;;;;;;;;;;24.71;68.04;100601.63;10502036;28;19924;-68
2023/07/29 11:16:54;;;;;;;;;;;;;;;24.06;68.29;100616.50;10501681;28;20284;-68
2023/07/29 11:21:56;;;;;;;;;;;;;;;24.22;67.91;100607.47;10501655;28;19928;-69
2023/07/29 11:26:58;;;;;;;;;;;;;;;24.54;67.81;100606.28;10502745;28;19924;-69
2023/07/29 11:32:01;;;;;;;;;;;;;;;24.29;67.80;100598.56;10502235;28;19931;-67
2023/07/29 11:37:06;;;;;;;;;;;;;;;23.77;68.31;100595.81;10500886;28;19931;-68
2023/07/29 11:42:11;;;;;;;;;;;;;;;23.60;71.29;100605.81;10501884;28;19924;-68
2023/07/29 11:47:14;;;;;;;;;;;;;;;24.14;70.41;100596.84;10501772;28;19924;-69
2023/07/29 11:52:18;;;;;;;;;;;;;;;23.55;71.11;100614.34;10501576;28;19959;-69
2023/07/29 11:57:21;;;;;;;;;;;;;;;23.33;72.83;100608.81;10500152;28;19987;-69
2023/07/29 12:02:23;;;;;;;;;;;;;;;22.56;83.46;100625.47;10500124;28;19925;-68
2023/07/29 12:07:25;;;;;;;;;;;;;;;21.89;86.56;100658.50;10500804;28;20415;-69
2023/07/29 12:12:27;;;;;;;;;;;;;;;19.45;100.00;100730.16;10500523;28;19925;-70
2023/07/29 12:17:30;;;;;;;;;;;;;;;17.99;100.00;100707.41;10500435;28;20035;-74
2023/07/29 12:22:32;;;;;;;;;;;;;;;17.98;100.00;100705.72;10500261;28;19994;-75
2023/07/29 12:27:34;;;;;;;;;;;;;;;18.18;100.00;100684.56;10500221;28;19924;-74
2023/07/29 12:32:44;;;;;;;;;;;;;;;18.51;100.00;100682.44;10499771;28;19928;-75
2023/07/29 12:37:46;;;;;;;;;;;;;;;18.40;100.00;100679.94;10498687;28;19928;-74
2023/07/29 12:42:49;;;;;;;;;;;;;;;18.86;100.00;100689.78;10497897;28;20371;-74
2023/07/29 12:47:51;;;;;;;;;;;;;;;19.31;100.00;100691.66;10498099;28;19924;-74
2023/07/29 12:52:53;;;;;;;;;;;;;;;19.56;100.00;100699.91;10499322;28;19925;-74
2023/07/29 12:57:56;;;;;;;;;;;;;;;19.97;100.00;100705.69;10498818;28;19924;-74
2023/07/29 13:02:58;;;;;;;;;;;;;;;19.80;100.00;100703.84;10499091;28;19925;-75
2023/07/29 13:08:00;;;;;;;;;;;;;;;19.64;100.00;100692.03;10498882;28;19925;-75
2023/07/29 13:13:03;;;;;;;;;;;;;;;19.69;100.00;100683.63;10498598;28;19928;-75
2023/07/29 13:18:05;;;;;;;;;;;;;;;19.94;100.00;100679.41;10498597;28;19924;-75
2023/07/29 13:23:07;;;;;;;;;;;;;;;19.86;100.00;100682.81;10496739;28;19928;-75
2023/07/29 13:28:10;;;;;;;;;;;;;;;20.38;100.00;100679.44;10498214;28;20398;-75
2023/07/29 13:33:12;;;;;;;;;;;;;;;22.77;100.00;100685.44;10497093;28;19925;-75
2023/07/29 13:38:14;;;;;;;;;;;;;;;21.45;100.00;100677.38;10496773;28;20380;-75
2023/07/29 13:43:17;;;;;;;;;;;;;;;21.14;100.00;100683.22;10497681;28;20390;-75
2023/07/29 13:48:20;;;;;;;;;;;;;;;22.71;100.00;100684.31;10497903;28;19931;-76
2023/07/29 13:53:22;;;;;;;;;;;;;;;23.81;100.00;100672.81;10497701;28;20024;-76
2023/07/29 13:58:25;;;;;;;;;;;;;;;23.96;96.15;100678.25;10497638;28;19971;-73
2023/07/29 14:03:28;;;;;;;;;;;;;;;23.86;100.00;100691.03;10497519;28;20333;-74
2023/07/29 14:08:30;;;;;;;;;;;;;;;24.80;94.43;100677.34;10497549;28;19924;-74
2023/07/29 14:13:32;;;;;;;;;;;;;;;24.83;86.75;100674.25;10497385;28;19931;-74
2023/07/29 14:18:35;;;;;;;;;;;;;;;25.11;89.48;100663.72;10497158;28;20368;-75
2023/07/29 14:23:37;;;;;;;;;;;;;;;26.04;86.23;100661.28;10497191;28;19925;-75
2023/07/29 14:28:39;;;;;;;;;;;;;;;25.35;86.89;100653.72;10497043;28;19924;-75
2023/07/29 14:33:41;;;;;;;;;;;;;;;25.40;83.03;100652.16;10495850;28;19931;-74
2023/07/29 14:38:43;;;;;;;;;;;;;;;24.97;78.12;100646.66;10503092;28;19924;-73
2023/07/29 14:43:46;;;;;;;;;;;;;;;26.81;78.17;100638.06;10503976;28;20288;-73
2023/07/29 14:48:48;;;;;;;;;;;;;;;27.02;75.48;100647.88;10536569;28;19939;-73
2023/07/29 14:53:50;;;;;;;;;;;;;;;25.99;78.47;100650.31;10504146;28;19924;-72
2023/07/29 14:58:52;;;;;;;;;;;;;;;25.48;82.67;100653.06;10503546;28;20411;-71
2023/07/29 15:03:55;;;;;;;;;;;;;;;27.10;71.76;100654.97;10503478;28;20022;-72
2023/07/29 15:08:57;;;;;;;;;;;;;;;26.06;74.41;100653.84;10503494;28;19972;-72
2023/07/29 15:13:59;;;;;;;;;;;;;;;25.69;74.73;100649.56;10503057;28;19946;-70
2023/07/29 15:19:03;;;;;;;;;;;;;;;25.05;75.87;100637.69;10502933;28;19924;-70
2023/07/29 15:24:05;;;;;;;;;;;;;;;25.83;71.68;100645.16;10502761;28;19924;-71
2023/07/29 15:29:07;;;;;;;;;;;;;;;25.90;75.51;100643.38;10502495;28;20015;-70
2023/07/29 15:34:09;;;;;;;;;;;;;;;24.82;80.15;100632.47;10502301;28;20283;-70
2023/07/29 15:39:11;;;;;;;;;;;;;;;24.06;82.22;100640.56;10502356;28;19930;-69
2023/07/29 15:44:14;;;;;;;;;;;;;;;24.74;84.95;100627.19;10501636;28;19924;-70
2023/07/29 15:49:16;;;;;;;;;;;;;;;24.44;81.67;100622.66;10501421;28;20003;-69
2023/07/29 15:54:18;;;;;;;;;;;;;;;24.01;84.34;100624.22;10501421;28;20268;-69
2023/07/29 15:59:20;;;;;;;;;;;;;;;23.62;86.34;100617.13;10478049;22;19929;-71
2023/07/29 16:04:23;;;;;;;;;;;;;;;23.21;91.56;100630.75;10460155;28;19925;-71
2023/07/29 16:09:26;;;;;;;;;;;;;;;23.47;85.68;100625.06;10441841;28;20401;-70
2023/07/29 16:14:28;;;;;;;;;;;;;;;22.72;99.91;100631.75;10459377;28;19936;-70
2023/07/29 16:19:31;;;;;;;;;;;;;;;22.63;100.00;100630.97;10459020;28;19924;-70
2023/07/29 16:24:33;;;;;;;;;;;;;;;22.32;100.00;100615.66;10459006;28;19956;-70
2023/07/29 16:29:36;;;;;;;;;;;;;;;21.97;100.00;100623.03;10458760;28;20403;-71
2023/07/29 16:34:38;;;;;;;;;;;;;;;22.07;100.00;100642.34;10458384;28;20286;-70
2023/07/29 16:39:42;;;;;;;;;;;;;;;21.92;100.00;100659.16;10457586;28;21303;-71
2023/07/29 16:44:44;;;;;;;;;;;;;;;22.30;99.47;100651.53;10458438;28;19924;-70
2023/07/29 16:49:47;;;;;;;;;;;;;;;22.90;97.43;100635.03;10456796;28;19929;-70
2023/07/29 16:54:49;;;;;;;;;;;;;;;22.53;99.91;100624.97;10457972;28;19925;-70
2023/07/29 16:59:51;;;;;;;;;;;;;;;22.71;100.00;100620.25;10456591;28;19931;-69
2023/07/29 17:04:54;;;;;;;;;;;;;;;23.03;98.14;100623.78;10457723;28;19925;-69
2023/07/29 17:09:56;;;;;;;;;;;;;;;22.54;100.00;100621.28;10457462;28;19932;-69
2023/07/29 17:14:58;;;;;;;;;;;;;;;22.71;100.00;100617.59;10457167;28;20003;-69
2023/07/29 17:20:00;;;;;;;;;;;;;;;22.06;100.00;100623.84;10457000;28;19925;-70
2023/07/29 17:25:03;;;;;;;;;;;;;;;22.10;100.00;100632.34;10439236;28;19947;-69
2023/07/29 17:30:05;;;;;;;;;;;;;;;21.92;100.00;100629.84;10456742;28;20376;-69
2023/07/29 17:35:08;;;;;;;;;;;;;;;21.91;100.00;100628.19;10456824;28;19929;-70
2023/07/29 17:40:11;;;;;;;;;;;;;;;22.11;100.00;100631.31;10456485;28;19931;-69
2023/07/29 17:45:13;;;;;;;;;;;;;;;21.44;100.00;100640.25;10456731;28;20004;-69
2023/07/29 17:50:15;;;;;;;;;;;;;;;21.56;100.00;100643.47;10456474;28;19972;-69
2023/07/29 17:55:18;;;;;;;;;;;;;;;21.41;100.00;100640.56;10456555;28;19928;-69
2023/07/29 18:00:20;;;;;;;;;;;;;;;21.40;100.00;100645.06;10456219;28;19956;-70
2023/07/29 18:05:22;;;;;;;;;;;;;;;21.39;100.00;100637.25;10438782;28;19925;-69
2023/07/29 18:10:25;;;;;;;;;;;;;;;21.38;100.00;100651.53;10458844;28;20022;-69
2023/07/29 18:15:29;;;;;;;;;;;;;;;20.65;100.00;100658.22;10464580;28;20307;-70
2023/07/29 18:20:31;;;;;;;;;;;;;;;20.14;100.00;100668.59;10446233;28;19925;-70
2023/07/29 18:25:33;;;;;;;;;;;;;;;20.35;100.00;100655.81;10463655;28;19925;-69
2023/07/29 18:30:36;;;;;;;;;;;;;;;20.26;100.00;100658.56;10463641;28;19924;-69
2023/07/29 18:35:41;;;;;;;;;;;;;;;20.29;100.00;100663.56;10445557;28;19982;-69
2023/07/29 18:40:44;;;;;;;;;;;;;;;19.98;100.00;100678.13;10463320;28;19967;-69
2023/07/29 18:45:46;;;;;;;;;;;;;;;20.00;100.00;100677.97;10462928;28;19925;-69
2023/07/29 18:50:48;;;;;;;;;;;;;;;19.94;100.00;100689.19;10462576;28;20398;-69
2023/07/29 18:55:51;;;;;;;;;;;;;;;19.82;100.00;100676.16;10444788;28;19925;-69
2023/07/29 19:00:53;;;;;;;;;;;;;;;19.82;100.00;100673.50;10462283;28;19925;-68
2023/07/29 19:05:56;;;;;;;;;;;;;;;19.79;100.00;100680.94;10462070;28;19931;-68
2023/07/29 19:10:58;;;;;;;;;;;;;;;19.79;100.00;100687.06;10444243;28;19928;-68
2023/07/29 19:16:06;;;;;;;;;;;;;;;19.91;100.00;100679.72;10461685;28;19925;-68
2023/07/29 19:21:08;;;;;;;;;;;;;;;20.00;100.00;100685.94;10460769;28;19929;-68
2023/07/29 19:26:11;;;;;;;;;;;;;;;19.79;100.00;100703.00;10461240;28;19932;-68
2023/07/29 19:31:13;;;;;;;;;;;;;;;20.12;100.00;100713.94;10461282;28;19925;-68
2023/07/29 19:36:16;;;;;;;;;;;;;;;19.46;100.00;100720.38;10460905;28;19924;-68
2023/07/29 19:41:18;;;;;;;;;;;;;;;19.49;100.00;100728.03;10426490;28;20322;-68
2023/07/29 19:46:21;;;;;;;;;;;;;;;19.44;100.00;100739.09;10460662;28;19925;-68
2023/07/29 19:51:39;;;;;;;;;;;;;;;19.22;100.00;100742.97;10460380;28;19933;-68
2023/07/29 19:56:41;;;;;;;;;;;;;;;19.11;100.00;100737.84;10459995;28;20016;-67
2023/07/29 20:01:44;;;;;;;;;;;;;;;18.74;100.00;100755.38;10459932;28;19931;-67
2023/07/29 20:06:46;;;;;;;;;;;;;;;18.62;100.00;100753.84;10459927;28;19924;-67
2023/07/29 20:11:48;;;;;;;;;;;;;;;18.38;100.00;100752.47;10459551;28;20371;-67
2023/07/29 20:16:50;;;;;;;;;;;;;;;18.34;100.00;100755.53;10459526;28;19925;-67
2023/07/29 20:21:53;;;;;;;;;;;;;;;18.17;100.00;100754.41;10459216;28;19925;-66
2023/07/29 20:26:55;;;;;;;;;;;;;;;17.77;100.00;100753.50;10459669;28;19929;-66
2023/07/29 20:31:57;;;;;;;;;;;;;;;17.91;100.00;100752.28;10458766;28;19931;-66
2023/07/29 20:36:59;;;;;;;;;;;;;;;17.52;100.00;100752.16;10424456;28;19924;-66
2023/07/29 20:42:02;;;;;;;;;;;;;;;17.47;100.00;100754.38;10458302;28;19928;-66
2023/07/29 20:47:05;;;;;;;;;;;;;;;17.30;100.00;100755.00;10458394;28;19924;-66
2023/07/29 20:52:08;;;;;;;;;;;;;;;17.15;100.00;100757.19;10440683;28;19925;-66
2023/07/29 20:57:10;;;;;;;;;;;;;;;16.82;100.00;100765.16;10457934;28;20287;-66
2023/07/29 21:02:12;;;;;;;;;;;;;;;16.71;100.00;100755.50;10457621;28;19939;-66
2023/07/29 21:07:15;;;;;;;;;;;;;;;16.53;100.00;100763.16;10457594;28;19925;-68
2023/07/29 21:12:17;;;;;;;;;;;;;;;16.50;100.00;100755.47;10457562;28;19924;-67
2023/07/29 21:17:19;;;;;;;;;;;;;;;16.40;100.00;100759.84;10457440;28;20003;-67
2023/07/29 21:22:21;;;;;;;;;;;;;;;16.21;100.00;100759.69;10457066;28;20280;-66
2023/07/29 21:27:25;;;;;;;;;;;;;;;16.11;100.00;100763.06;10457188;28;19931;-66
2023/07/29 21:32:27;;;;;;;;;;;;;;;16.19;100.00;100753.69;10456961;28;20287;-66
2023/07/29 21:37:29;;;;;;;;;;;;;;;15.98;100.00;100757.09;10456937;28;19972;-67
2023/07/29 21:42:38;;;;;;;;;;;;;;;16.06;100.00;100759.13;10457344;28;19925;-67
2023/07/29 21:47:40;;;;;;;;;;;;;;;15.87;100.00;100760.63;10464254;28;19959;-67
2023/07/29 21:52:42;;;;;;;;;;;;;;;15.89;100.00;100765.78;10465284;28;19978;-67
2023/07/29 21:57:44;;;;;;;;;;;;;;;15.76;100.00;100773.84;10464716;28;20406;-67
2023/07/29 22:02:47;;;;;;;;;;;;;;;15.72;100.00;100767.09;10464573;28;20368;-67
2023/07/29 22:07:50;;;;;;;;;;;;;;;15.65;100.00;100792.28;10464988;28;19929;-67
2023/07/29 22:12:54;;;;;;;;;;;;;;;15.68;100.00;100777.03;10464194;28;20360;-67
2023/07/29 22:17:56;;;;;;;;;;;;;;;15.54;100.00;100783.41;10464597;28;20015;-67
2023/07/29 22:22:58;;;;;;;;;;;;;;;15.36;100.00;100783.03;10464515;28;19925;-66
2023/07/29 22:28:00;;;;;;;;;;;;;;;15.84;100.00;100775.88;10463932;28;20016;-66
2023/07/29 22:33:03;;;;;;;;;;;;;;;15.90;100.00;100784.16;10464146;28;19924;-66
2023/07/29 22:38:05;;;;;;;;;;;;;;;15.85;100.00;100775.72;10463448;28;19963;-67
2023/07/29 22:43:07;;;;;;;;;;;;;;;16.33;100.00;100780.66;10463750;28;20007;-67
2023/07/29 22:48:09;;;;;;;;;;;;;;;16.26;100.00;100784.75;10462933;28;20371;-66
2023/07/29 22:53:12;;;;;;;;;;;;;;;16.30;100.00;100791.47;10462757;28;19925;-66
2023/07/29 22:58:15;;;;;;;;;;;;;;;16.50;100.00;100791.63;10461253;28;19925;-66
2023/07/29 23:03:18;;;;;;;;;;;;;;;16.01;100.00;100811.47;10462306;28;20288;-68
2023/07/29 23:08:20;;;;;;;;;;;;;;;16.28;100.00;100803.13;10444607;28;20354;-67
2023/07/29 23:13:22;;;;;;;;;;;;;;;16.51;100.00;100810.00;10462339;28;19933;-67
2023/07/29 23:18:24;;;;;;;;;;;;;;;16.26;100.00;100813.81;10461931;28;19932;-67
2023/07/29 23:23:27;;;;;;;;;;;;;;;16.37;100.00;100812.94;10461695;28;19932;-67
2023/07/29 23:28:29;;;;;;;;;;;;;;;16.38;100.00;100821.72;10461476;28;19925;-67
2023/07/29 23:33:31;;;;;;;;;;;;;;;16.06;100.00;100827.81;10461927;28;19963;-67
2023/07/29 23:38:33;;;;;;;;;;;;;;;16.30;100.00;100823.16;10460965;28;20038;-67
2023/07/29 23:43:35;;;;;;;;;;;;;;;16.31;100.00;100824.03;10460844;28;19924;-67
2023/07/29 23:48:38;;;;;;;;;;;;;;;16.10;100.00;100823.94;10460729;28;19924;-67
2023/07/29 23:53:40;;;;;;;;;;;;;;;16.17;100.00;100825.13;10460492;28;20281;-67
2023/07/29 23:58:42;;;;;;;;;;;;;;;16.13;100.00;100827.16;10460125;28;19925;-67
